createdAt,value
2018-02-24T00:00:16.271Z,0
2018-02-24T00:01:17.651Z,0
2018-02-24T00:02:19.038Z,0
2018-02-24T00:03:20.496Z,0
2018-02-24T00:04:21.882Z,0
2018-02-24T00:05:23.274Z,0
2018-02-24T00:06:24.662Z,0
2018-02-24T00:07:26.074Z,0
2018-02-24T00:08:27.428Z,0
2018-02-24T00:09:28.833Z,0
2018-02-24T00:10:30.232Z,0
2018-02-24T00:11:31.616Z,0
2018-02-24T00:12:33.017Z,0
2018-02-24T00:13:34.407Z,0
2018-02-24T00:14:35.904Z,0
2018-02-24T00:15:37.266Z,0
2018-02-24T00:16:38.656Z,0
2018-02-24T00:17:40.040Z,0
2018-02-24T00:18:41.427Z,0
2018-02-24T00:19:42.844Z,0
2018-02-24T00:20:44.231Z,0
2018-02-24T00:21:45.622Z,0
2018-02-24T00:22:47.015Z,0
2018-02-24T00:23:48.500Z,0
2018-02-24T00:24:49.878Z,0
2018-02-24T00:25:51.272Z,0
2018-02-24T00:26:52.650Z,0
2018-02-24T00:27:54.062Z,0
2018-02-24T00:28:55.492Z,0
2018-02-24T00:29:56.874Z,0
2018-02-24T00:30:58.265Z,0
2018-02-24T00:31:59.654Z,0
2018-02-24T00:33:01.043Z,0
2018-02-24T00:34:02.447Z,0
2018-02-24T00:35:03.946Z,0
2018-02-24T00:36:05.381Z,0
2018-02-24T00:37:06.822Z,0
2018-02-24T00:38:08.251Z,0
2018-02-24T00:39:09.660Z,0
2018-02-24T00:40:11.058Z,0
2018-02-24T00:41:12.444Z,0
2018-02-24T00:42:13.855Z,0
2018-02-24T00:43:15.251Z,0
2018-02-24T00:44:16.653Z,0
2018-02-24T00:45:18.043Z,0
2018-02-24T00:46:19.430Z,0
2018-02-24T00:47:20.847Z,0
2018-02-24T00:48:22.243Z,0
2018-02-24T00:49:23.678Z,0
2018-02-24T00:50:25.059Z,0
2018-02-24T00:51:26.440Z,0
2018-02-24T00:52:27.844Z,0
2018-02-24T00:53:29.229Z,0
2018-02-24T00:54:30.642Z,0
2018-02-24T00:55:32.156Z,0
2018-02-24T00:56:33.552Z,0
2018-02-24T00:57:34.962Z,0
2018-02-24T00:58:36.350Z,0
2018-02-24T00:59:37.736Z,0
2018-02-24T01:00:39.132Z,0
2018-02-24T01:01:40.525Z,0
2018-02-24T01:02:41.931Z,0
2018-02-24T01:03:43.324Z,0
2018-02-24T01:04:44.744Z,0
2018-02-24T01:05:46.135Z,0
2018-02-24T01:06:47.606Z,0
2018-02-24T01:07:49.002Z,0
2018-02-24T01:08:50.396Z,0
2018-02-24T01:09:51.781Z,0
2018-02-24T01:10:53.166Z,0
2018-02-24T01:11:54.542Z,0
2018-02-24T01:12:55.938Z,0
2018-02-24T01:13:57.358Z,0
2018-02-24T01:14:58.755Z,0
2018-02-24T01:16:00.166Z,0
2018-02-24T01:17:01.588Z,0
2018-02-24T01:18:02.984Z,0
2018-02-24T01:19:04.368Z,0
2018-02-24T01:20:05.770Z,0
2018-02-24T01:21:07.214Z,0
2018-02-24T01:22:08.622Z,0
2018-02-24T01:23:10.012Z,0
2018-02-24T01:24:11.441Z,0
2018-02-24T01:25:12.838Z,0
2018-02-24T01:26:14.227Z,0
2018-02-24T01:27:15.706Z,0
2018-02-24T01:28:17.179Z,0
2018-02-24T01:29:18.657Z,0
2018-02-24T01:30:20.084Z,0
2018-02-24T01:31:21.541Z,0
2018-02-24T01:32:22.961Z,0
2018-02-24T01:33:24.335Z,0
2018-02-24T01:34:25.730Z,0
2018-02-24T01:35:27.120Z,0
2018-02-24T01:36:28.521Z,0
2018-02-24T01:37:29.964Z,0
2018-02-24T01:38:31.473Z,0
2018-02-24T01:39:32.884Z,0
2018-02-24T01:40:34.276Z,0
2018-02-24T01:41:35.701Z,0
2018-02-24T01:42:37.083Z,0
2018-02-24T01:43:38.472Z,0
2018-02-24T01:44:39.874Z,0
2018-02-24T01:45:41.270Z,0
2018-02-24T01:46:42.678Z,0
2018-02-24T01:47:44.056Z,0
2018-02-24T01:48:45.440Z,0
2018-02-24T01:49:46.840Z,0
2018-02-24T01:50:48.266Z,0
2018-02-24T01:51:49.655Z,0
2018-02-24T01:52:51.056Z,0
2018-02-24T01:53:52.439Z,0
2018-02-24T01:54:53.832Z,0
2018-02-24T01:55:55.217Z,0
2018-02-24T01:56:56.628Z,0
2018-02-24T01:57:58.040Z,0
2018-02-24T01:58:59.485Z,0
2018-02-24T02:00:00.883Z,0
2018-02-24T02:01:02.277Z,0
2018-02-24T02:02:03.666Z,0
2018-02-24T02:03:05.045Z,0
2018-02-24T02:04:06.428Z,0
2018-02-24T02:05:07.809Z,0
2018-02-24T02:06:09.207Z,0
2018-02-24T02:07:10.597Z,0
2018-02-24T02:08:11.989Z,0
2018-02-24T02:09:13.418Z,0
2018-02-24T02:10:14.830Z,0
2018-02-24T02:11:16.215Z,0
2018-02-24T02:12:17.606Z,0
2018-02-24T02:13:19.003Z,0
2018-02-24T02:14:20.385Z,0
2018-02-24T02:15:21.801Z,0
2018-02-24T02:16:23.197Z,0
2018-02-24T02:17:24.608Z,0
2018-02-24T02:18:26.009Z,0
2018-02-24T02:19:27.550Z,0
2018-02-24T02:20:28.943Z,0
2018-02-24T02:21:30.346Z,0
2018-02-24T02:22:31.733Z,0
2018-02-24T02:23:33.140Z,0
2018-02-24T02:24:34.523Z,0
2018-02-24T02:25:35.912Z,0
2018-02-24T02:26:37.313Z,0
2018-02-24T02:27:38.694Z,0
2018-02-24T02:28:40.099Z,0
2018-02-24T02:29:41.505Z,0
2018-02-24T02:30:42.884Z,0
2018-02-24T02:31:44.275Z,0
2018-02-24T02:32:45.664Z,0
2018-02-24T02:33:47.052Z,0
2018-02-24T02:34:48.440Z,0
2018-02-24T02:35:49.822Z,0
2018-02-24T02:36:51.225Z,0
2018-02-24T02:37:52.645Z,0
2018-02-24T02:38:54.053Z,0
2018-02-24T02:39:55.441Z,0
2018-02-24T02:40:56.832Z,0
2018-02-24T02:41:58.238Z,0
2018-02-24T02:42:59.623Z,0
2018-02-24T02:44:01.012Z,0
2018-02-24T02:45:02.407Z,0
2018-02-24T02:46:03.802Z,0
2018-02-24T02:47:05.182Z,0
2018-02-24T02:48:06.584Z,0
2018-02-24T02:49:07.981Z,0
2018-02-24T02:50:09.388Z,0
2018-02-24T02:51:10.859Z,0
2018-02-24T02:52:12.222Z,0
2018-02-24T02:53:13.650Z,0
2018-02-24T02:54:15.047Z,0
2018-02-24T02:55:16.460Z,0
2018-02-24T02:56:17.876Z,0
2018-02-24T02:57:19.269Z,0
2018-02-24T02:58:20.670Z,0
2018-02-24T02:59:22.051Z,0
2018-02-24T03:00:23.483Z,0
2018-02-24T03:01:24.889Z,0
2018-02-24T03:02:26.269Z,0
2018-02-24T03:03:27.659Z,0
2018-02-24T03:04:29.051Z,0
2018-02-24T03:05:30.441Z,0
2018-02-24T03:06:31.820Z,0
2018-02-24T03:07:33.223Z,0
2018-02-24T03:08:34.620Z,0
2018-02-24T03:09:36.035Z,0
2018-02-24T03:10:37.435Z,0
2018-02-24T03:11:38.924Z,0
2018-02-24T03:12:40.311Z,0
2018-02-24T03:13:41.697Z,0
2018-02-24T03:14:43.090Z,0
2018-02-24T03:15:44.474Z,0
2018-02-24T03:16:45.850Z,0
2018-02-24T03:17:47.242Z,0
2018-02-24T03:18:48.643Z,0
2018-02-24T03:19:50.048Z,0
2018-02-24T03:20:51.447Z,0
2018-02-24T03:21:52.857Z,0
2018-02-24T03:22:54.241Z,0
2018-02-24T03:23:55.626Z,0
2018-02-24T03:24:57.017Z,0
2018-02-24T03:25:58.423Z,0
2018-02-24T03:26:59.808Z,0
2018-02-24T03:28:01.217Z,0
2018-02-24T03:29:02.609Z,0
2018-02-24T03:30:03.992Z,0
2018-02-24T03:31:05.466Z,0
2018-02-24T03:32:06.941Z,0
2018-02-24T03:33:08.342Z,0
2018-02-24T03:34:09.730Z,0
2018-02-24T03:35:11.134Z,0
2018-02-24T03:36:12.544Z,0
2018-02-24T03:37:13.927Z,0
2018-02-24T03:38:15.497Z,0
2018-02-24T03:39:16.886Z,0
2018-02-24T03:40:18.305Z,0
2018-02-24T03:41:19.701Z,0
2018-02-24T03:42:21.091Z,0
2018-02-24T03:43:22.556Z,0
2018-02-24T03:44:23.964Z,0
2018-02-24T03:45:25.350Z,0
2018-02-24T03:46:26.746Z,0
2018-02-24T03:47:28.171Z,0
2018-02-24T03:48:29.561Z,0
2018-02-24T03:49:30.965Z,0
2018-02-24T03:50:32.350Z,0
2018-02-24T03:51:33.741Z,0
2018-02-24T03:52:35.133Z,0
2018-02-24T03:53:36.562Z,0
2018-02-24T03:54:37.948Z,0
2018-02-24T03:55:39.345Z,0
2018-02-24T03:56:40.749Z,0
2018-02-24T03:57:42.139Z,0
2018-02-24T03:58:43.560Z,0
2018-02-24T03:59:44.960Z,0
2018-02-24T04:00:46.357Z,0
2018-02-24T04:01:47.745Z,0
2018-02-24T04:02:49.162Z,0
2018-02-24T04:03:50.611Z,0
2018-02-24T04:04:51.999Z,0
2018-02-24T04:05:53.399Z,0
2018-02-24T04:06:54.784Z,0
2018-02-24T04:07:56.174Z,0
2018-02-24T04:08:57.573Z,0
2018-02-24T04:09:58.958Z,0
2018-02-24T04:11:00.342Z,0
2018-02-24T04:12:01.770Z,0
2018-02-24T04:13:03.171Z,0
2018-02-24T04:14:04.616Z,0
2018-02-24T04:15:06.018Z,0
2018-02-24T04:16:07.423Z,0
2018-02-24T04:17:08.809Z,0
2018-02-24T04:18:10.200Z,0
2018-02-24T04:19:11.570Z,0
2018-02-24T04:20:12.978Z,0
2018-02-24T04:21:14.443Z,0
2018-02-24T04:22:15.840Z,0
2018-02-24T04:23:17.265Z,0
2018-02-24T04:24:18.770Z,0
2018-02-24T04:25:20.165Z,0
2018-02-24T04:26:21.560Z,0
2018-02-24T04:27:22.951Z,0
2018-02-24T04:28:24.348Z,0
2018-02-24T04:29:25.737Z,0
2018-02-24T04:30:27.143Z,0
2018-02-24T04:31:28.555Z,0
2018-02-24T04:32:29.938Z,0
2018-02-24T04:33:31.330Z,0
2018-02-24T04:34:32.744Z,0
2018-02-24T04:35:34.236Z,0
2018-02-24T04:36:35.634Z,0
2018-02-24T04:37:37.020Z,0
2018-02-24T04:38:38.407Z,0
2018-02-24T04:39:39.797Z,0
2018-02-24T04:40:41.203Z,0
2018-02-24T04:41:42.627Z,0
2018-02-24T04:42:44.068Z,0
2018-02-24T04:43:45.475Z,0
2018-02-24T04:44:46.937Z,0
2018-02-24T04:45:48.326Z,0
2018-02-24T04:46:49.698Z,0
2018-02-24T04:47:51.090Z,0
2018-02-24T04:48:52.479Z,0
2018-02-24T04:49:53.865Z,0
2018-02-24T04:50:55.269Z,0
2018-02-24T04:51:56.686Z,0
2018-02-24T04:52:58.077Z,0
2018-02-24T04:53:59.460Z,0
2018-02-24T04:55:00.860Z,0
2018-02-24T04:56:02.351Z,0
2018-02-24T04:57:03.765Z,0
2018-02-24T04:58:05.246Z,0
2018-02-24T04:59:06.666Z,0
2018-02-24T05:00:08.057Z,0
2018-02-24T05:01:09.439Z,0
2018-02-24T05:02:10.821Z,0
2018-02-24T05:03:12.217Z,0
2018-02-24T05:04:13.625Z,0
2018-02-24T05:05:15.008Z,0
2018-02-24T05:06:16.396Z,0
2018-02-24T05:07:17.793Z,0
2018-02-24T05:08:19.192Z,0
2018-02-24T05:09:20.578Z,0
2018-02-24T05:10:21.967Z,0
2018-02-24T05:11:23.360Z,0
2018-02-24T05:12:24.768Z,0
2018-02-24T05:13:26.173Z,0
2018-02-24T05:14:27.563Z,0
2018-02-24T05:15:28.971Z,0
2018-02-24T05:16:30.469Z,0
2018-02-24T05:17:31.854Z,0
2018-02-24T05:18:33.267Z,0
2018-02-24T05:19:34.649Z,0
2018-02-24T05:20:36.042Z,0
2018-02-24T05:21:37.427Z,0
2018-02-24T05:22:38.847Z,0
2018-02-24T05:23:40.245Z,0
2018-02-24T05:24:41.634Z,0
2018-02-24T05:25:43.034Z,0
2018-02-24T05:26:44.419Z,0
2018-02-24T05:27:45.810Z,0
2018-02-24T05:28:47.210Z,0
2018-02-24T05:29:48.592Z,0
2018-02-24T05:30:49.989Z,0
2018-02-24T05:31:51.391Z,0
2018-02-24T05:32:52.787Z,0
2018-02-24T05:33:54.210Z,0
2018-02-24T05:34:55.619Z,0
2018-02-24T05:35:56.997Z,0
2018-02-24T05:36:58.484Z,0
2018-02-24T05:37:59.868Z,0
2018-02-24T05:39:01.256Z,0
2018-02-24T05:40:02.664Z,0
2018-02-24T05:41:04.053Z,0
2018-02-24T05:42:05.459Z,0
2018-02-24T05:43:06.848Z,0
2018-02-24T05:44:08.235Z,0
2018-02-24T05:45:09.625Z,0
2018-02-24T05:46:11.007Z,0
2018-02-24T05:47:12.401Z,0
2018-02-24T05:48:13.899Z,0
2018-02-24T05:49:15.300Z,0
2018-02-24T05:50:16.713Z,0
2018-02-24T05:51:18.104Z,0
2018-02-24T05:52:19.489Z,0
2018-02-24T05:53:20.890Z,0
2018-02-24T05:54:22.289Z,0
2018-02-24T05:55:23.697Z,0
2018-02-24T05:56:25.092Z,0
2018-02-24T05:57:26.557Z,0
2018-02-24T05:58:27.960Z,0
2018-02-24T05:59:29.350Z,0
2018-02-24T06:00:30.744Z,0
2018-02-24T06:01:32.137Z,0
2018-02-24T06:02:33.527Z,0
2018-02-24T06:03:34.923Z,0
2018-02-24T06:04:36.323Z,0
2018-02-24T06:05:37.710Z,0
2018-02-24T06:06:39.103Z,0
2018-02-24T06:07:40.512Z,0
2018-02-24T06:08:42.025Z,0
2018-02-24T06:09:43.420Z,0
2018-02-24T06:10:44.841Z,0
2018-02-24T06:11:46.231Z,0
2018-02-24T06:12:47.615Z,0
2018-02-24T06:13:49.057Z,0
2018-02-24T06:14:50.440Z,0
2018-02-24T06:15:51.879Z,0
2018-02-24T06:16:53.264Z,0
2018-02-24T06:17:54.649Z,0
2018-02-24T06:18:56.041Z,0
2018-02-24T06:19:57.422Z,0
2018-02-24T06:20:58.813Z,0
2018-02-24T06:22:00.212Z,0
2018-02-24T06:23:01.613Z,0
2018-02-24T06:24:02.995Z,0
2018-02-24T06:25:04.397Z,5
2018-02-24T06:26:05.801Z,5
2018-02-24T06:27:07.202Z,5
2018-02-24T06:28:08.610Z,5
2018-02-24T06:29:10.081Z,5
2018-02-24T06:30:11.487Z,5
2018-02-24T06:31:12.900Z,5
2018-02-24T06:32:14.308Z,5
2018-02-24T06:33:15.698Z,5
2018-02-24T06:34:17.087Z,5
2018-02-24T06:35:18.474Z,5
2018-02-24T06:36:19.881Z,5
2018-02-24T06:37:21.282Z,5
2018-02-24T06:38:22.685Z,5
2018-02-24T06:39:24.113Z,5
2018-02-24T06:40:25.551Z,5
2018-02-24T06:41:26.905Z,5
2018-02-24T06:42:28.317Z,5
2018-02-24T06:43:29.739Z,5
2018-02-24T06:44:31.172Z,5
2018-02-24T06:45:32.604Z,11
2018-02-24T06:46:34.001Z,11
2018-02-24T06:47:35.429Z,11
2018-02-24T06:48:36.834Z,11
2018-02-24T06:49:38.380Z,11
2018-02-24T06:50:39.786Z,11
2018-02-24T06:51:41.187Z,11
2018-02-24T06:52:42.647Z,11
2018-02-24T06:53:44.107Z,11
2018-02-24T06:54:45.499Z,11
2018-02-24T06:55:46.892Z,11
2018-02-24T06:56:48.288Z,11
2018-02-24T06:57:49.677Z,11
2018-02-24T06:58:51.065Z,11
2018-02-24T06:59:52.472Z,11
2018-02-24T07:00:53.910Z,11
2018-02-24T07:01:55.316Z,11
2018-02-24T07:02:56.706Z,11
2018-02-24T07:03:58.093Z,11
2018-02-24T07:04:59.496Z,16
2018-02-24T07:06:00.920Z,16
2018-02-24T07:07:02.329Z,16
2018-02-24T07:08:03.761Z,16
2018-02-24T07:09:05.237Z,16
2018-02-24T07:10:06.646Z,16
2018-02-24T07:11:08.071Z,16
2018-02-24T07:12:09.572Z,16
2018-02-24T07:13:10.980Z,16
2018-02-24T07:14:12.388Z,16
2018-02-24T07:15:13.784Z,16
2018-02-24T07:16:15.181Z,16
2018-02-24T07:17:16.578Z,16
2018-02-24T07:18:17.966Z,16
2018-02-24T07:19:19.370Z,16
2018-02-24T07:20:20.786Z,16
2018-02-24T07:21:22.197Z,16
2018-02-24T07:22:23.602Z,16
2018-02-24T07:23:24.996Z,16
2018-02-24T07:24:26.409Z,16
2018-02-24T07:25:27.828Z,16
2018-02-24T07:26:29.238Z,16
2018-02-24T07:27:30.658Z,22
2018-02-24T07:28:32.054Z,22
2018-02-24T07:29:33.419Z,22
2018-02-24T07:30:34.834Z,22
2018-02-24T07:31:36.226Z,22
2018-02-24T07:32:37.707Z,22
2018-02-24T07:33:39.090Z,22
2018-02-24T07:34:40.494Z,22
2018-02-24T07:35:41.906Z,22
2018-02-24T07:36:43.305Z,22
2018-02-24T07:37:44.709Z,22
2018-02-24T07:38:46.099Z,22
2018-02-24T07:39:47.483Z,22
2018-02-24T07:40:48.897Z,22
2018-02-24T07:41:50.303Z,22
2018-02-24T07:42:51.694Z,22
2018-02-24T07:43:53.095Z,22
2018-02-24T07:44:54.523Z,22
2018-02-24T07:45:55.910Z,22
2018-02-24T07:46:57.304Z,22
2018-02-24T07:47:58.708Z,22
2018-02-24T07:49:00.120Z,22
2018-02-24T07:50:01.504Z,22
2018-02-24T07:51:02.902Z,22
2018-02-24T07:52:04.303Z,22
2018-02-24T07:53:05.693Z,28
2018-02-24T07:54:07.091Z,28
2018-02-24T07:55:08.490Z,28
2018-02-24T07:56:09.900Z,28
2018-02-24T07:57:11.301Z,28
2018-02-24T07:58:12.697Z,28
2018-02-24T07:59:14.088Z,28
2018-02-24T08:00:15.500Z,28
2018-02-24T08:01:16.881Z,28
2018-02-24T08:02:18.270Z,28
2018-02-24T08:03:19.669Z,28
2018-02-24T08:04:21.124Z,28
2018-02-24T08:05:22.414Z,28
2018-02-24T08:06:23.840Z,28
2018-02-24T08:07:25.262Z,28
2018-02-24T08:08:26.687Z,28
2018-02-24T08:09:28.143Z,28
2018-02-24T08:10:29.566Z,28
2018-02-24T08:11:30.976Z,28
2018-02-24T08:12:32.384Z,28
2018-02-24T08:13:33.845Z,28
2018-02-24T08:14:35.228Z,28
2018-02-24T08:15:36.619Z,28
2018-02-24T08:16:38.023Z,28
2018-02-24T08:17:39.409Z,33
2018-02-24T08:18:40.801Z,33
2018-02-24T08:19:42.191Z,33
2018-02-24T08:20:43.595Z,33
2018-02-24T08:21:44.987Z,33
2018-02-24T08:22:46.403Z,33
2018-02-24T08:23:47.796Z,33
2018-02-24T08:24:49.278Z,33
2018-02-24T08:25:50.684Z,33
2018-02-24T08:26:52.131Z,33
2018-02-24T08:27:53.525Z,33
2018-02-24T08:28:54.917Z,33
2018-02-24T08:29:56.327Z,33
2018-02-24T08:30:57.739Z,33
2018-02-24T08:31:59.127Z,33
2018-02-24T08:33:00.523Z,33
2018-02-24T08:34:01.957Z,33
2018-02-24T08:35:03.383Z,33
2018-02-24T08:36:04.819Z,33
2018-02-24T08:37:06.236Z,33
2018-02-24T08:38:07.611Z,33
2018-02-24T08:39:09.032Z,33
2018-02-24T08:40:10.420Z,33
2018-02-24T08:41:11.845Z,33
2018-02-24T08:42:13.243Z,33
2018-02-24T08:43:14.669Z,33
2018-02-24T08:44:16.074Z,33
2018-02-24T08:45:17.520Z,33
2018-02-24T08:46:18.926Z,39
2018-02-24T08:47:20.345Z,39
2018-02-24T08:48:21.733Z,39
2018-02-24T08:49:23.153Z,39
2018-02-24T08:50:24.554Z,39
2018-02-24T08:51:25.956Z,39
2018-02-24T08:52:27.348Z,39
2018-02-24T08:53:28.734Z,39
2018-02-24T08:54:30.139Z,39
2018-02-24T08:55:31.567Z,39
2018-02-24T08:56:33.061Z,39
2018-02-24T08:57:34.454Z,39
2018-02-24T08:58:35.867Z,39
2018-02-24T08:59:37.256Z,39
2018-02-24T09:00:38.642Z,39
2018-02-24T09:01:40.048Z,39
2018-02-24T09:02:41.433Z,39
2018-02-24T09:03:42.826Z,39
2018-02-24T09:04:44.212Z,39
2018-02-24T09:05:45.609Z,39
2018-02-24T09:06:47.020Z,39
2018-02-24T09:07:48.389Z,45
2018-02-24T09:08:49.786Z,45
2018-02-24T09:09:51.166Z,45
2018-02-24T09:10:52.560Z,45
2018-02-24T09:11:53.970Z,45
2018-02-24T09:12:55.387Z,45
2018-02-24T09:13:56.826Z,45
2018-02-24T09:14:58.233Z,45
2018-02-24T09:15:59.610Z,45
2018-02-24T09:17:01.051Z,50
2018-02-24T09:18:02.445Z,50
2018-02-24T09:19:03.861Z,50
2018-02-24T09:20:05.269Z,50
2018-02-24T09:21:06.661Z,50
2018-02-24T09:22:08.055Z,50
2018-02-24T09:23:09.446Z,50
2018-02-24T09:24:10.829Z,50
2018-02-24T09:25:12.215Z,56
2018-02-24T09:26:13.671Z,56
2018-02-24T09:27:15.071Z,56
2018-02-24T09:28:16.455Z,56
2018-02-24T09:29:17.838Z,56
2018-02-24T09:30:19.228Z,56
2018-02-24T09:31:20.626Z,61
2018-02-24T09:32:22.008Z,61
2018-02-24T09:33:23.394Z,61
2018-02-24T09:34:24.786Z,61
2018-02-24T09:35:26.174Z,61
2018-02-24T09:36:27.560Z,61
2018-02-24T09:37:29.020Z,61
2018-02-24T09:38:30.416Z,61
2018-02-24T09:39:31.798Z,61
2018-02-24T09:40:33.205Z,61
2018-02-24T09:41:34.593Z,61
2018-02-24T09:42:35.975Z,67
2018-02-24T09:43:37.372Z,67
2018-02-24T09:44:38.774Z,67
2018-02-24T09:45:40.163Z,67
2018-02-24T09:46:41.565Z,73
2018-02-24T09:47:42.986Z,73
2018-02-24T09:48:44.482Z,73
2018-02-24T09:49:45.723Z,78
2018-02-24T09:50:47.111Z,78
2018-02-24T09:51:48.505Z,78
2018-02-24T09:52:49.905Z,84
2018-02-24T09:53:51.310Z,84
2018-02-24T09:54:52.693Z,90
2018-02-24T09:55:54.095Z,90
2018-02-24T09:56:55.488Z,101
2018-02-24T09:57:56.967Z,140
2018-02-24T09:58:58.351Z,185
2018-02-24T09:59:59.753Z,230
2018-02-24T10:01:01.139Z,264
2018-02-24T10:02:02.531Z,298
2018-02-24T10:03:03.928Z,348
2018-02-24T10:04:05.373Z,399
2018-02-24T10:05:06.773Z,450
2018-02-24T10:06:08.182Z,489
2018-02-24T10:07:09.579Z,500
2018-02-24T10:08:10.979Z,528
2018-02-24T10:09:12.453Z,534
2018-02-24T10:10:13.853Z,551
2018-02-24T10:11:15.323Z,568
2018-02-24T10:12:16.672Z,573
2018-02-24T10:13:18.076Z,579
2018-02-24T10:14:19.482Z,585
2018-02-24T10:15:20.885Z,601
2018-02-24T10:16:22.322Z,596
2018-02-24T10:17:23.735Z,596
2018-02-24T10:18:25.137Z,601
2018-02-24T10:19:26.560Z,596
2018-02-24T10:20:27.987Z,596
2018-02-24T10:21:29.389Z,596
2018-02-24T10:22:30.788Z,596
2018-02-24T10:23:32.205Z,601
2018-02-24T10:24:33.606Z,601
2018-02-24T10:25:35.035Z,613
2018-02-24T10:26:36.437Z,607
2018-02-24T10:27:37.909Z,607
2018-02-24T10:28:39.313Z,607
2018-02-24T10:29:40.771Z,618
2018-02-24T10:30:42.166Z,613
2018-02-24T10:31:43.567Z,641
2018-02-24T10:32:44.982Z,630
2018-02-24T10:33:46.391Z,630
2018-02-24T10:34:47.797Z,635
2018-02-24T10:35:49.199Z,635
2018-02-24T10:36:50.616Z,646
2018-02-24T10:37:52.016Z,646
2018-02-24T10:38:53.427Z,658
2018-02-24T10:39:54.830Z,658
2018-02-24T10:40:56.290Z,669
2018-02-24T10:41:57.711Z,663
2018-02-24T10:42:59.129Z,675
2018-02-24T10:44:00.547Z,680
2018-02-24T10:45:01.973Z,675
2018-02-24T10:46:03.389Z,697
2018-02-24T10:47:04.858Z,697
2018-02-24T10:48:06.312Z,714
2018-02-24T10:49:07.728Z,714
2018-02-24T10:50:09.145Z,720
2018-02-24T10:51:10.574Z,736
2018-02-24T10:52:11.979Z,731
2018-02-24T10:53:52.911Z,742
2018-02-24T10:54:54.333Z,731
2018-02-24T10:55:55.742Z,736
2018-02-24T10:56:57.147Z,736
2018-02-24T10:57:58.575Z,725
2018-02-24T10:58:59.992Z,731
2018-02-24T11:00:01.458Z,725
2018-02-24T11:01:02.879Z,731
2018-02-24T11:02:04.298Z,725
2018-02-24T11:03:05.703Z,697
2018-02-24T11:04:07.106Z,663
2018-02-24T11:05:08.514Z,641
2018-02-24T11:06:09.927Z,635
2018-02-24T11:07:11.345Z,630
2018-02-24T11:08:12.766Z,635
2018-02-24T11:09:14.198Z,641
2018-02-24T11:10:15.622Z,641
2018-02-24T11:11:17.037Z,646
2018-02-24T11:12:18.442Z,641
2018-02-24T11:13:19.916Z,646
2018-02-24T11:14:21.358Z,646
2018-02-24T11:15:22.777Z,652
2018-02-24T11:16:24.197Z,658
2018-02-24T11:17:25.615Z,652
2018-02-24T11:18:27.034Z,646
2018-02-24T11:19:28.455Z,652
2018-02-24T11:20:29.921Z,658
2018-02-24T11:21:31.331Z,652
2018-02-24T11:22:32.741Z,652
2018-02-24T11:23:34.157Z,652
2018-02-24T11:24:35.584Z,658
2018-02-24T11:25:37.002Z,663
2018-02-24T11:26:38.430Z,663
2018-02-24T11:27:39.856Z,652
2018-02-24T11:28:41.270Z,663
2018-02-24T11:29:42.683Z,658
2018-02-24T11:30:44.096Z,658
2018-02-24T11:31:45.566Z,663
2018-02-24T11:32:46.980Z,658
2018-02-24T11:33:48.383Z,652
2018-02-24T11:34:49.786Z,658
2018-02-24T11:35:51.224Z,658
2018-02-24T11:36:52.624Z,658
2018-02-24T11:37:54.038Z,663
2018-02-24T11:38:55.507Z,663
2018-02-24T11:39:56.928Z,652
2018-02-24T11:40:58.357Z,658
2018-02-24T11:41:59.767Z,652
2018-02-24T11:43:01.242Z,652
2018-02-24T11:44:02.582Z,641
2018-02-24T11:45:03.988Z,641
2018-02-24T11:46:05.390Z,641
2018-02-24T11:47:06.803Z,641
2018-02-24T11:48:08.214Z,641
2018-02-24T11:49:09.629Z,635
2018-02-24T11:50:11.039Z,630
2018-02-24T11:51:12.449Z,624
2018-02-24T11:52:13.870Z,613
2018-02-24T11:53:15.281Z,607
2018-02-24T11:54:16.684Z,596
2018-02-24T11:55:18.082Z,585
2018-02-24T11:56:19.488Z,573
2018-02-24T11:57:20.905Z,551
2018-02-24T11:58:22.320Z,523
2018-02-24T11:59:23.748Z,506
2018-02-24T12:00:25.152Z,500
2018-02-24T12:01:26.572Z,483
2018-02-24T12:02:27.988Z,472
2018-02-24T12:03:29.519Z,472
2018-02-24T12:04:30.874Z,455
2018-02-24T12:05:32.284Z,450
2018-02-24T12:06:33.712Z,444
2018-02-24T12:07:35.125Z,438
2018-02-24T12:08:36.573Z,433
2018-02-24T12:09:37.963Z,427
2018-02-24T12:10:39.429Z,427
2018-02-24T12:11:40.840Z,416
2018-02-24T12:12:42.287Z,416
2018-02-24T12:13:43.706Z,410
2018-02-24T12:14:45.159Z,405
2018-02-24T12:15:46.559Z,405
2018-02-24T12:16:47.966Z,399
2018-02-24T12:17:49.371Z,399
2018-02-24T12:18:50.776Z,393
2018-02-24T12:19:52.205Z,388
2018-02-24T12:20:53.598Z,388
2018-02-24T12:21:55.003Z,382
2018-02-24T12:22:56.409Z,376
2018-02-24T12:23:57.833Z,365
2018-02-24T12:24:59.248Z,360
2018-02-24T12:26:00.657Z,354
2018-02-24T12:27:02.064Z,343
2018-02-24T12:28:03.459Z,343
2018-02-24T12:29:04.872Z,337
2018-02-24T12:30:06.274Z,326
2018-02-24T12:31:07.682Z,326
2018-02-24T12:32:09.081Z,320
2018-02-24T12:33:10.504Z,315
2018-02-24T12:34:11.896Z,309
2018-02-24T12:35:13.393Z,303
2018-02-24T12:36:14.793Z,303
2018-02-24T12:37:16.208Z,292
2018-02-24T12:38:17.620Z,286
2018-02-24T12:39:19.019Z,281
2018-02-24T12:40:20.424Z,275
2018-02-24T12:41:21.830Z,270
2018-02-24T12:42:23.227Z,264
2018-02-24T12:43:24.634Z,264
2018-02-24T12:44:26.027Z,253
2018-02-24T12:45:27.422Z,253
2018-02-24T12:46:28.903Z,247
2018-02-24T12:47:30.243Z,241
2018-02-24T12:48:31.637Z,247
2018-02-24T12:49:33.053Z,241
2018-02-24T12:50:34.450Z,236
2018-02-24T12:51:35.854Z,236
2018-02-24T12:52:37.263Z,230
2018-02-24T12:53:38.662Z,225
2018-02-24T12:54:40.088Z,225
2018-02-24T12:55:41.511Z,219
2018-02-24T12:56:42.907Z,219
2018-02-24T12:57:44.355Z,213
2018-02-24T12:58:45.731Z,208
2018-02-24T12:59:47.146Z,208
2018-02-24T13:00:48.546Z,208
2018-02-24T13:01:49.942Z,202
2018-02-24T13:02:51.348Z,202
2018-02-24T13:03:52.748Z,196
2018-02-24T13:04:54.141Z,196
2018-02-24T13:05:55.537Z,196
2018-02-24T13:06:57.030Z,196
2018-02-24T13:07:58.426Z,191
2018-02-24T13:08:59.842Z,185
2018-02-24T13:10:01.250Z,185
2018-02-24T13:11:02.652Z,185
2018-02-24T13:12:04.089Z,185
2018-02-24T13:13:05.449Z,191
2018-02-24T13:14:06.849Z,191
2018-02-24T13:15:08.259Z,202
2018-02-24T13:16:09.643Z,202
2018-02-24T13:17:11.048Z,202
2018-02-24T13:18:12.434Z,213
2018-02-24T13:19:13.837Z,219
2018-02-24T13:20:15.236Z,230
2018-02-24T13:21:16.634Z,236
2018-02-24T13:22:18.033Z,241
2018-02-24T13:23:19.450Z,241
2018-02-24T13:24:20.853Z,241
2018-02-24T13:25:22.314Z,241
2018-02-24T13:26:23.673Z,236
2018-02-24T13:27:25.130Z,236
2018-02-24T13:28:26.527Z,230
2018-02-24T13:29:27.932Z,219
2018-02-24T13:30:29.352Z,208
2018-02-24T13:31:30.750Z,196
2018-02-24T13:32:32.174Z,196
2018-02-24T13:33:33.581Z,185
2018-02-24T13:34:34.985Z,180
2018-02-24T13:35:36.393Z,174
2018-02-24T13:36:37.811Z,168
2018-02-24T13:37:39.214Z,163
2018-02-24T13:38:40.686Z,168
2018-02-24T13:39:42.080Z,157
2018-02-24T13:40:43.495Z,157
2018-02-24T13:41:44.900Z,151
2018-02-24T13:42:46.311Z,151
2018-02-24T13:43:47.716Z,151
2018-02-24T13:44:49.128Z,146
2018-02-24T13:45:50.547Z,146
2018-02-24T13:46:51.946Z,146
2018-02-24T13:47:53.337Z,146
2018-02-24T13:48:54.744Z,146
2018-02-24T13:49:56.152Z,140
2018-02-24T13:50:57.548Z,140
2018-02-24T13:51:58.959Z,140
2018-02-24T13:53:00.361Z,140
2018-02-24T13:54:01.780Z,140
2018-02-24T13:55:03.277Z,140
2018-02-24T13:56:04.690Z,140
2018-02-24T13:57:06.173Z,140
2018-02-24T13:58:07.583Z,140
2018-02-24T13:59:09.045Z,140
2018-02-24T14:00:10.443Z,140
2018-02-24T14:01:11.857Z,140
2018-02-24T14:02:13.269Z,151
2018-02-24T14:03:14.696Z,140
2018-02-24T14:04:16.105Z,140
2018-02-24T14:05:17.538Z,140
2018-02-24T14:06:18.938Z,140
2018-02-24T14:07:20.333Z,140
2018-02-24T14:08:21.732Z,140
2018-02-24T14:09:23.133Z,140
2018-02-24T14:10:24.589Z,140
2018-02-24T14:11:25.988Z,140
2018-02-24T14:12:27.405Z,135
2018-02-24T14:13:28.801Z,135
2018-02-24T14:14:30.209Z,135
2018-02-24T14:15:31.594Z,135
2018-02-24T14:16:33.001Z,129
2018-02-24T14:17:34.404Z,129
2018-02-24T14:18:35.803Z,129
2018-02-24T14:19:37.200Z,129
2018-02-24T14:20:38.614Z,129
2018-02-24T14:21:40.007Z,123
2018-02-24T14:22:41.428Z,123
2018-02-24T14:23:42.820Z,123
2018-02-24T14:24:44.225Z,123
2018-02-24T14:25:45.619Z,118
2018-02-24T14:26:47.024Z,118
2018-02-24T14:27:48.445Z,118
2018-02-24T14:28:49.854Z,118
2018-02-24T14:29:51.268Z,118
2018-02-24T14:30:52.841Z,112
2018-02-24T14:31:54.172Z,112
2018-02-24T14:32:55.564Z,112
2018-02-24T14:33:56.996Z,112
2018-02-24T14:34:58.412Z,106
2018-02-24T14:35:59.803Z,106
2018-02-24T14:37:01.210Z,106
2018-02-24T14:38:02.608Z,106
2018-02-24T14:39:04.004Z,106
2018-02-24T14:40:05.403Z,106